createdAt,value
2022-08-03T00:02:20.075Z,57.91
2022-08-03T00:04:52.509Z,57.36
2022-08-03T00:07:20.192Z,57.36
2022-08-03T00:09:48.363Z,57.60
2022-08-03T00:12:16.357Z,57.14
2022-08-03T00:14:44.240Z,57.22
2022-08-03T00:17:12.202Z,57.63
2022-08-03T00:19:40.040Z,57.60
2022-08-03T00:22:07.709Z,57.21
2022-08-03T00:24:36.453Z,58.21
2022-08-03T00:27:04.171Z,58.04
2022-08-03T00:29:31.906Z,58.02
2022-08-03T00:32:00.476Z,58.14
2022-08-03T00:34:36.546Z,57.89
2022-08-03T00:37:16.699Z,58.56
2022-08-03T00:39:46.450Z,58.00
2022-08-03T00:42:15.004Z,58.03
2022-08-03T00:44:44.715Z,58.24
2022-08-03T00:47:13.094Z,58.16
2022-08-03T00:49:42.193Z,57.61
2022-08-03T00:52:11.133Z,58.82
2022-08-03T00:54:40.051Z,58.57
2022-08-03T00:57:08.145Z,57.84
2022-08-03T00:59:38.281Z,58.06
2022-08-03T01:02:06.553Z,58.91
2022-08-03T01:04:34.236Z,58.71
2022-08-03T01:07:30.366Z,60.30
2022-08-03T01:09:58.296Z,59.21
2022-08-03T01:12:35.129Z,58.89
2022-08-03T01:15:07.726Z,59.58
2022-08-03T01:18:05.173Z,58.37
2022-08-03T01:20:38.607Z,58.54
2022-08-03T01:23:18.569Z,60.44
2022-08-03T01:26:06.029Z,59.98
2022-08-03T01:29:10.042Z,59.67
2022-08-03T01:32:59.770Z,60.68
2022-08-03T01:34:41.412Z,59.64
2022-08-03T01:37:12.332Z,61.02
2022-08-03T01:39:41.626Z,60.55
2022-08-03T01:42:14.163Z,61.11
2022-08-03T01:44:45.383Z,62.14
2022-08-03T01:47:14.367Z,62.63
2022-08-03T01:49:45.766Z,62.43
2022-08-03T01:52:19.010Z,62.93
2022-08-03T01:54:51.624Z,61.40
2022-08-03T01:57:21.215Z,61.40
2022-08-03T01:59:52.327Z,62.07
2022-08-03T02:02:33.028Z,61.90
2022-08-03T02:05:10.615Z,62.86
2022-08-03T02:07:42.088Z,63.43
2022-08-03T02:10:13.266Z,62.83
2022-08-03T02:12:45.966Z,61.89
2022-08-03T02:15:16.803Z,62.29
2022-08-03T02:17:47.399Z,62.45
2022-08-03T02:20:17.262Z,62.35
2022-08-03T02:22:47.261Z,61.87
2022-08-03T02:25:16.453Z,61.86
2022-08-03T02:28:01.968Z,62.45
2022-08-03T02:30:39.257Z,61.85
2022-08-03T02:33:28.399Z,62.56
2022-08-03T02:35:57.804Z,62.31
2022-08-03T02:38:31.317Z,62.95
2022-08-03T02:41:01.919Z,63.54
2022-08-03T02:44:05.421Z,65.30
2022-08-03T02:46:23.597Z,63.44
2022-08-03T02:48:54.165Z,63.44
2022-08-03T02:51:23.597Z,63.93
2022-08-03T02:53:52.072Z,63.82
2022-08-03T02:56:21.565Z,65.04
2022-08-03T02:58:50.718Z,63.46
2022-08-03T03:01:25.979Z,63.88
2022-08-03T03:03:57.616Z,64.57
2022-08-03T03:06:27.174Z,64.90
2022-08-03T03:08:59.895Z,64.20
2022-08-03T03:11:29.243Z,63.76
2022-08-03T03:13:57.761Z,63.56
2022-08-03T03:16:29.551Z,63.93
2022-08-03T03:18:58.596Z,65.19
2022-08-03T03:21:27.853Z,64.80
2022-08-03T03:23:55.823Z,64.62
2022-08-03T03:26:23.578Z,65.12
2022-08-03T03:28:52.407Z,64.72
2022-08-03T03:31:20.165Z,64.83
2022-08-03T03:33:48.235Z,64.34
2022-08-03T03:36:16.282Z,65.58
2022-08-03T03:38:44.169Z,63.65
2022-08-03T03:41:12.024Z,65.26
2022-08-03T03:43:40.180Z,65.50
2022-08-03T03:46:08.182Z,65.23
2022-08-03T03:48:36.065Z,66.26
2022-08-03T03:51:04.394Z,64.71
2022-08-03T03:53:32.247Z,65.44
2022-08-03T03:56:02.829Z,64.37
2022-08-03T03:58:32.949Z,63.27
2022-08-03T04:01:01.745Z,64.98
2022-08-03T04:03:30.035Z,65.27
2022-08-03T04:06:17.895Z,63.54
2022-08-03T04:09:01.307Z,62.87
2022-08-03T04:11:38.020Z,62.57
2022-08-03T04:14:18.072Z,62.13
2022-08-03T04:16:51.181Z,61.77
2022-08-03T04:19:34.513Z,60.91
2022-08-03T04:22:06.078Z,60.66
2022-08-03T04:24:40.388Z,59.93
2022-08-03T04:27:11.285Z,58.46
2022-08-03T04:29:48.107Z,57.96
2022-08-03T04:32:18.177Z,57.94
2022-08-03T04:34:47.317Z,57.13
2022-08-03T04:37:54.163Z,57.29
2022-08-03T04:40:29.711Z,57.17
2022-08-03T04:42:59.589Z,56.82
2022-08-03T04:45:28.453Z,56.55
2022-08-03T04:47:56.583Z,56.64
2022-08-03T04:50:25.673Z,57.04
2022-08-03T04:53:06.299Z,54.17
2022-08-03T04:55:35.920Z,54.12
2022-08-03T04:58:04.535Z,55.11
2022-08-03T05:00:33.111Z,53.63
2022-08-03T05:03:00.852Z,54.10
2022-08-03T05:05:47.434Z,53.21
2022-08-03T05:08:20.735Z,52.88
2022-08-03T05:10:58.897Z,53.08
2022-08-03T05:13:27.102Z,51.95
2022-08-03T05:15:54.853Z,54.18
2022-08-03T05:18:22.945Z,52.66
2022-08-03T05:20:50.821Z,52.01
2022-08-03T05:23:18.631Z,50.94
2022-08-03T05:25:50.110Z,51.21
2022-08-03T05:28:18.903Z,49.82
2022-08-03T05:30:46.922Z,51.23
2022-08-03T05:33:15.085Z,50.89
2022-08-03T05:35:55.788Z,50.31
2022-08-03T05:38:34.023Z,49.20
2022-08-03T05:41:22.326Z,49.35
2022-08-03T05:43:55.574Z,49.08
2022-08-03T05:46:23.771Z,49.58
2022-08-03T05:48:52.223Z,49.62
2022-08-03T05:51:20.013Z,49.40
2022-08-03T05:53:47.824Z,49.18
2022-08-03T05:56:16.834Z,49.18
2022-08-03T05:58:47.098Z,49.11
2022-08-03T06:01:19.074Z,48.09
2022-08-03T06:03:47.153Z,47.68
2022-08-03T06:06:15.598Z,47.32
2022-08-03T06:08:44.034Z,47.21
2022-08-03T06:11:12.658Z,47.13
2022-08-03T06:13:41.328Z,46.62
2022-08-03T06:16:09.418Z,45.42
2022-08-03T06:18:38.647Z,45.18
2022-08-03T06:21:09.674Z,45.13
2022-08-03T06:23:54.743Z,44.17
2022-08-03T06:26:25.242Z,44.65
2022-08-03T06:28:54.463Z,44.49
2022-08-03T06:31:32.249Z,43.73
2022-08-03T06:34:32.699Z,44.18
2022-08-03T06:36:58.587Z,43.17
2022-08-03T06:39:30.025Z,42.23
2022-08-03T06:41:58.182Z,41.30
2022-08-03T06:44:26.229Z,40.96
2022-08-03T06:46:54.350Z,40.73
2022-08-03T06:49:22.092Z,39.23
2022-08-03T06:52:03.277Z,39.24
2022-08-03T06:54:33.451Z,40.42
2022-08-03T06:57:01.321Z,39.77
2022-08-03T07:00:07.736Z,39.17
2022-08-03T07:02:21.148Z,39.14
2022-08-03T07:04:49.432Z,38.63
2022-08-03T07:07:17.912Z,38.46
2022-08-03T07:09:56.483Z,37.79
2022-08-03T07:12:27.766Z,37.90
2022-08-03T07:15:00.667Z,37.13
2022-08-03T07:17:33.040Z,36.99
2022-08-03T07:20:03.211Z,36.59
2022-08-03T07:22:31.314Z,36.67
2022-08-03T07:24:59.519Z,36.54
2022-08-03T07:27:28.684Z,36.64
2022-08-03T07:29:59.380Z,36.91
2022-08-03T07:32:28.640Z,37.17
2022-08-03T07:35:00.557Z,36.79
2022-08-03T07:37:29.855Z,37.40
2022-08-03T07:40:00.667Z,37.54
2022-08-03T07:42:29.224Z,36.77
2022-08-03T07:44:58.085Z,36.90
2022-08-03T07:47:34.861Z,37.33
2022-08-03T07:50:06.429Z,36.38
2022-08-03T07:52:48.968Z,35.14
2022-08-03T07:55:21.624Z,35.10
2022-08-03T07:58:03.963Z,35.78
2022-08-03T08:00:32.591Z,33.93
2022-08-03T08:03:00.783Z,33.83
2022-08-03T08:05:29.538Z,33.08
2022-08-03T08:07:57.292Z,33.34
2022-08-03T08:10:25.678Z,33.46
2022-08-03T08:12:53.941Z,33.79
2022-08-03T08:15:21.658Z,33.45
2022-08-03T08:17:52.417Z,34.00
2022-08-03T08:20:31.482Z,33.10
2022-08-03T08:23:19.973Z,32.87
2022-08-03T08:25:56.362Z,32.46
2022-08-03T08:28:32.819Z,31.91
2022-08-03T08:31:02.398Z,32.30
2022-08-03T08:34:01.020Z,31.44
2022-08-03T08:36:18.836Z,31.82
2022-08-03T08:38:47.075Z,30.86
2022-08-03T08:41:15.810Z,31.43
2022-08-03T08:43:43.924Z,31.44
2022-08-03T08:46:23.172Z,31.25
2022-08-03T08:48:53.832Z,31.34
2022-08-03T08:51:22.590Z,31.28
2022-08-03T08:53:53.836Z,30.12
2022-08-03T08:56:25.682Z,30.28
2022-08-03T08:58:58.150Z,30.50
2022-08-03T09:01:27.396Z,30.78
2022-08-03T09:03:55.551Z,28.61
2022-08-03T09:06:24.707Z,29.86
2022-08-03T09:08:52.928Z,29.27
2022-08-03T09:11:52.420Z,28.75
2022-08-03T09:14:39.340Z,29.74
2022-08-03T09:17:04.849Z,29.15
2022-08-03T09:19:34.565Z,29.50
2022-08-03T09:22:13.924Z,29.01
2022-08-03T09:25:23.222Z,29.19
2022-08-03T09:27:52.009Z,28.55
2022-08-03T09:30:33.732Z,28.59
2022-08-03T09:33:05.481Z,28.59
2022-08-03T09:35:53.269Z,28.40
2022-08-03T09:38:27.541Z,28.89
2022-08-03T09:41:00.398Z,28.58
2022-08-03T09:43:28.991Z,28.91
2022-08-03T09:46:04.583Z,29.15
2022-08-03T09:48:35.135Z,28.64
2022-08-03T09:51:14.354Z,28.29
2022-08-03T09:53:59.437Z,28.53
2022-08-03T09:56:45.132Z,28.68
2022-08-03T09:59:23.734Z,27.63
2022-08-03T10:01:52.007Z,27.46
2022-08-03T10:04:20.674Z,27.37
2022-08-03T10:07:09.306Z,26.69
2022-08-03T10:09:38.336Z,27.49
2022-08-03T10:12:14.120Z,27.11
2022-08-03T10:14:45.373Z,27.71
2022-08-03T10:17:13.910Z,27.36
2022-08-03T10:19:42.826Z,27.60
2022-08-03T10:22:24.500Z,26.99
2022-08-03T10:24:56.805Z,26.94
2022-08-03T10:27:26.963Z,27.16
2022-08-03T10:30:01.271Z,27.03
2022-08-03T10:32:34.085Z,26.58
2022-08-03T10:35:20.927Z,25.97
2022-08-03T10:38:08.105Z,25.47
2022-08-03T10:40:58.654Z,25.95
2022-08-03T10:43:33.996Z,25.56
2022-08-03T10:46:06.259Z,24.96
2022-08-03T10:48:35.621Z,25.08
2022-08-03T10:51:04.875Z,25.71
2022-08-03T10:53:54.631Z,26.03
2022-08-03T10:56:51.130Z,24.18
2022-08-03T10:59:28.045Z,24.40
2022-08-03T11:02:00.876Z,25.15
2022-08-03T11:04:30.397Z,25.30
2022-08-03T11:07:17.697Z,25.26
2022-08-03T11:09:54.127Z,25.40
2022-08-03T11:12:30.552Z,25.01
2022-08-03T11:15:06.392Z,25.61
2022-08-03T11:17:46.859Z,25.44
2022-08-03T11:20:52.917Z,24.66
2022-08-03T11:24:04.335Z,24.66
2022-08-03T11:26:32.949Z,23.84
2022-08-03T11:29:29.217Z,25.61
2022-08-03T11:31:57.584Z,25.41
2022-08-03T11:34:26.062Z,25.33
2022-08-03T11:37:21.572Z,25.54
2022-08-03T11:39:54.515Z,25.19
2022-08-03T11:42:25.612Z,24.55
2022-08-03T11:44:58.050Z,24.58
2022-08-03T11:47:28.287Z,24.58
2022-08-03T11:50:00.310Z,24.34
2022-08-03T11:52:35.096Z,24.81
2022-08-03T11:55:08.476Z,24.55
2022-08-03T11:59:03.415Z,24.46
2022-08-03T12:00:31.997Z,25.23
2022-08-03T12:03:09.001Z,24.86
2022-08-03T12:05:38.161Z,24.84
2022-08-03T12:08:08.977Z,26.68
2022-08-03T12:10:37.534Z,26.71
2022-08-03T12:14:45.212Z,27.07
2022-08-03T12:15:59.380Z,26.62
2022-08-03T12:18:27.362Z,26.09
2022-08-03T12:21:07.923Z,26.24
2022-08-03T12:23:37.943Z,25.86
2022-08-03T12:26:06.676Z,26.32
2022-08-03T12:28:37.832Z,25.76
2022-08-03T12:31:07.862Z,25.98
2022-08-03T12:33:59.163Z,25.82
2022-08-03T12:36:28.513Z,24.96
2022-08-03T12:38:58.784Z,25.00
2022-08-03T12:41:37.162Z,25.11
2022-08-03T12:44:06.682Z,24.87
2022-08-03T12:46:36.935Z,24.68
2022-08-03T12:49:11.426Z,24.88
2022-08-03T12:51:45.252Z,25.60
2022-08-03T12:54:24.166Z,25.17
2022-08-03T12:57:10.501Z,25.50
2022-08-03T12:59:53.232Z,25.83
2022-08-03T13:02:28.729Z,25.85
2022-08-03T13:04:56.853Z,25.49
2022-08-03T13:07:25.308Z,25.48
2022-08-03T13:09:56.323Z,25.26
2022-08-03T13:12:29.954Z,25.25
2022-08-03T13:14:59.562Z,25.04
2022-08-03T13:17:30.633Z,25.49
2022-08-03T13:19:58.375Z,25.26
2022-08-03T13:22:29.058Z,24.89
2022-08-03T13:24:57.797Z,24.83
2022-08-03T13:28:04.379Z,24.70
2022-08-03T13:30:16.602Z,25.47
2022-08-03T13:32:55.314Z,25.02
2022-08-03T13:35:23.358Z,24.93
2022-08-03T13:37:51.141Z,24.37
2022-08-03T13:40:18.979Z,24.85
2022-08-03T13:42:51.766Z,24.39
2022-08-03T13:45:19.516Z,24.63
2022-08-03T13:47:47.189Z,24.51
2022-08-03T13:50:15.442Z,24.42
2022-08-03T13:52:43.057Z,25.53
2022-08-03T13:55:10.932Z,25.85
2022-08-03T13:58:02.188Z,25.64
2022-08-03T14:00:29.575Z,25.99
2022-08-03T14:03:06.458Z,24.89
2022-08-03T14:05:38.797Z,26.31
2022-08-03T14:08:08.295Z,25.85
2022-08-03T14:10:38.284Z,25.98
2022-08-03T14:13:07.090Z,26.32
2022-08-03T14:15:37.342Z,25.80
2022-08-03T14:18:12.694Z,26.51
2022-08-03T14:20:50.323Z,26.82
2022-08-03T14:23:21.565Z,25.77
2022-08-03T14:25:51.975Z,25.11
2022-08-03T14:28:24.728Z,26.09
2022-08-03T14:30:53.940Z,26.17
2022-08-03T14:33:22.181Z,25.75
2022-08-03T14:35:50.825Z,25.58
2022-08-03T14:38:19.616Z,26.02
2022-08-03T14:40:48.800Z,25.81
2022-08-03T14:43:22.737Z,25.93
2022-08-03T14:45:52.460Z,25.89
2022-08-03T14:50:27.938Z,25.33
2022-08-03T14:51:10.316Z,25.22
2022-08-03T14:53:38.044Z,26.50
2022-08-03T14:56:10.224Z,26.17
2022-08-03T14:58:39.203Z,26.38
2022-08-03T15:02:05.575Z,25.63
2022-08-03T15:03:55.756Z,25.18
2022-08-03T15:06:24.364Z,25.49
2022-08-03T15:09:13.816Z,25.76
2022-08-03T15:11:40.539Z,26.13
2022-08-03T15:14:09.561Z,26.13
2022-08-03T15:16:38.587Z,26.24
2022-08-03T15:20:03.360Z,25.25
2022-08-03T15:21:54.743Z,24.82
2022-08-03T15:24:22.794Z,24.97
2022-08-03T15:26:52.171Z,24.90
2022-08-03T15:30:08.829Z,25.83
2022-08-03T15:32:09.572Z,24.81
2022-08-03T15:34:37.311Z,24.65
2022-08-03T15:37:12.774Z,24.37
2022-08-03T15:39:59.689Z,24.95
2022-08-03T15:42:30.193Z,24.50
2022-08-03T15:44:58.321Z,24.90
2022-08-03T15:47:26.785Z,24.82
2022-08-03T15:49:55.094Z,25.03
2022-08-03T15:52:23.331Z,25.49
2022-08-03T15:54:50.948Z,25.62
2022-08-03T15:57:19.064Z,26.49
2022-08-03T15:59:53.733Z,26.28
2022-08-03T16:02:21.598Z,26.26
2022-08-03T16:04:49.696Z,26.61
2022-08-03T16:07:37.291Z,26.83
2022-08-03T16:10:06.798Z,26.76
2022-08-03T16:12:34.523Z,26.70
2022-08-03T16:15:02.582Z,26.27
2022-08-03T16:17:32.239Z,26.95
2022-08-03T16:20:00.706Z,26.23
2022-08-03T16:22:32.640Z,26.87
2022-08-03T16:25:01.026Z,25.85
2022-08-03T16:27:37.657Z,26.97
2022-08-03T16:30:17.217Z,27.11
2022-08-03T16:32:45.517Z,26.57
2022-08-03T16:35:19.679Z,26.85
2022-08-03T16:37:51.792Z,27.15
2022-08-03T16:40:25.339Z,27.15
2022-08-03T16:42:53.396Z,26.90
2022-08-03T16:45:21.167Z,27.74
2022-08-03T16:48:01.295Z,28.06
2022-08-03T16:50:35.024Z,28.18
2022-08-03T16:53:16.897Z,27.68
2022-08-03T16:55:53.421Z,28.26
2022-08-03T16:58:34.481Z,27.79
2022-08-03T17:01:23.488Z,27.69
2022-08-03T17:04:02.727Z,27.88
2022-08-03T17:06:37.267Z,27.80
2022-08-03T17:09:10.527Z,27.87
2022-08-03T17:11:46.854Z,27.90
2022-08-03T17:14:22.641Z,28.18
2022-08-03T17:16:54.350Z,28.63
2022-08-03T17:19:25.299Z,29.12
2022-08-03T17:22:12.137Z,28.37
2022-08-03T17:24:45.659Z,28.55
2022-08-03T17:28:51.562Z,28.82
2022-08-03T17:30:11.911Z,28.72
2022-08-03T17:32:52.713Z,28.91
2022-08-03T17:35:36.629Z,28.73
2022-08-03T17:38:12.114Z,29.17
2022-08-03T17:40:48.235Z,28.85
2022-08-03T17:44:13.939Z,28.81
2022-08-03T17:46:07.249Z,29.41
2022-08-03T17:48:41.136Z,29.63
2022-08-03T17:51:46.488Z,29.69
2022-08-03T17:54:27.164Z,30.05
2022-08-03T17:58:01.374Z,29.85
2022-08-03T18:00:43.362Z,30.02
2022-08-03T18:03:18.185Z,30.16
2022-08-03T18:06:11.575Z,30.73
2022-08-03T18:08:50.510Z,31.32
2022-08-03T18:11:22.911Z,31.86
2022-08-03T18:13:58.047Z,32.34
2022-08-03T18:16:37.672Z,32.14
2022-08-03T18:19:14.472Z,32.36
2022-08-03T18:22:02.819Z,32.03
2022-08-03T18:24:31.409Z,32.29
2022-08-03T18:27:02.343Z,32.77
2022-08-03T18:29:30.852Z,32.68
2022-08-03T18:34:54.140Z,32.86
2022-08-03T18:37:25.460Z,32.41
2022-08-03T18:39:58.396Z,32.91
2022-08-03T18:42:28.059Z,33.46
2022-08-03T18:45:00.165Z,33.96
2022-08-03T18:48:05.046Z,33.84
2022-08-03T18:50:50.179Z,33.37
2022-08-03T18:54:01.796Z,33.43
2022-08-03T18:56:44.018Z,33.53
2022-08-03T18:59:30.354Z,34.02
2022-08-03T19:02:06.099Z,34.26
2022-08-03T19:04:54.197Z,34.98
2022-08-03T19:07:26.952Z,34.76
2022-08-03T19:10:24.363Z,35.01
2022-08-03T19:13:03.153Z,35.43
2022-08-03T19:15:36.339Z,35.33
2022-08-03T19:18:10.441Z,35.12
2022-08-03T19:20:40.209Z,35.37
2022-08-03T19:23:08.639Z,35.90
2022-08-03T19:25:40.605Z,35.66
2022-08-03T19:28:09.355Z,35.60
2022-08-03T19:30:46.410Z,35.48
2022-08-03T19:33:25.730Z,34.78
2022-08-03T19:35:57.804Z,35.38
2022-08-03T19:38:28.415Z,34.51
2022-08-03T19:41:00.981Z,34.47
2022-08-03T19:43:52.627Z,34.63
2022-08-03T19:49:16.895Z,34.12
2022-08-03T19:51:58.994Z,34.07
2022-08-03T19:54:39.652Z,34.71
2022-08-03T19:57:19.684Z,34.73
2022-08-03T19:59:51.706Z,35.14
2022-08-03T20:02:26.152Z,35.09
2022-08-03T20:04:57.628Z,34.78
2022-08-03T20:07:30.986Z,34.69
2022-08-03T20:10:05.361Z,34.92
2022-08-03T20:12:39.126Z,34.57
2022-08-03T20:15:08.078Z,34.52
2022-08-03T20:17:56.126Z,34.37
2022-08-03T20:20:34.722Z,34.45
2022-08-03T20:23:07.676Z,34.80
2022-08-03T20:25:57.157Z,34.86
2022-08-03T20:34:17.569Z,35.29
2022-08-03T20:36:45.662Z,35.99
2022-08-03T20:39:13.620Z,36.28
2022-08-03T20:41:41.624Z,35.27
2022-08-03T20:44:09.564Z,35.52
2022-08-03T20:46:53.422Z,35.47
2022-08-03T20:49:27.201Z,35.87
2022-08-03T20:51:55.080Z,35.34
2022-08-03T20:54:31.365Z,36.04
2022-08-03T20:57:04.160Z,35.89
2022-08-03T20:59:50.271Z,35.42
2022-08-03T21:02:29.944Z,36.14
2022-08-03T21:05:03.584Z,36.69
2022-08-03T21:08:05.037Z,36.73
2022-08-03T21:10:38.653Z,36.74
2022-08-03T21:12:58.266Z,32.78
2022-08-03T21:13:02.898Z,34.33
2022-08-03T21:13:06.983Z,34.59
2022-08-03T21:13:12.079Z,35.43
2022-08-03T21:13:23.867Z,36.94
2022-08-03T21:16:02.668Z,37.29
2022-08-03T21:18:52.003Z,37.59
2022-08-03T21:21:22.885Z,37.75
2022-08-03T21:23:53.500Z,38.27
2022-08-03T21:26:24.161Z,38.80
2022-08-03T21:28:56.381Z,38.71
2022-08-03T21:31:26.434Z,38.96
2022-08-03T21:33:57.608Z,38.89
2022-08-03T21:36:29.218Z,39.08
2022-08-03T21:38:58.734Z,39.25
2022-08-03T21:41:28.260Z,39.42
2022-08-03T21:43:56.253Z,39.41
2022-08-03T21:46:26.255Z,39.54
2022-08-03T21:50:06.191Z,39.50
2022-08-03T21:51:50.503Z,39.46
2022-08-03T21:54:20.516Z,39.57
2022-08-03T21:56:51.241Z,39.65
2022-08-03T21:59:20.487Z,39.86
2022-08-03T22:01:55.204Z,40.08
2022-08-03T22:04:53.591Z,39.90
2022-08-03T22:07:15.797Z,39.77
2022-08-03T22:09:51.293Z,39.86
2022-08-03T22:12:24.443Z,39.68
2022-08-03T22:15:00.302Z,39.93
2022-08-03T22:17:56.007Z,39.75
2022-08-03T22:20:24.231Z,39.70
2022-08-03T22:22:55.998Z,39.94
2022-08-03T22:25:31.531Z,39.70
2022-08-03T22:28:02.162Z,39.57
2022-08-03T22:30:31.678Z,39.49
2022-08-03T22:32:59.725Z,39.48
2022-08-03T22:35:28.155Z,39.45
2022-08-03T22:37:58.504Z,39.25
2022-08-03T22:40:26.911Z,39.17
2022-08-03T22:42:54.889Z,39.19
2022-08-03T22:46:07.771Z,38.91
2022-08-03T22:48:11.268Z,38.79
2022-08-03T22:50:40.858Z,39.03
2022-08-03T22:53:08.523Z,39.10
2022-08-03T22:55:37.076Z,39.14
2022-08-03T22:58:05.037Z,39.17
2022-08-03T23:00:32.835Z,39.25
2022-08-03T23:03:05.229Z,39.13
2022-08-03T23:06:01.350Z,39.40
2022-08-03T23:08:27.552Z,39.44
2022-08-03T23:11:02.832Z,39.66
2022-08-03T23:13:31.809Z,39.77
2022-08-03T23:16:00.476Z,39.76
2022-08-03T23:18:37.736Z,39.99
2022-08-03T23:21:11.683Z,39.78
2022-08-03T23:23:44.623Z,39.78
2022-08-03T23:26:13.965Z,39.99
2022-08-03T23:28:46.710Z,39.90
2022-08-03T23:31:15.682Z,40.05
2022-08-03T23:33:45.636Z,39.82
2022-08-03T23:36:30.462Z,40.21
2022-08-03T23:39:02.809Z,40.01
2022-08-03T23:41:33.101Z,40.28
2022-08-03T23:44:03.761Z,40.76
2022-08-03T23:46:33.129Z,40.84
2022-08-03T23:49:01.423Z,40.62
2022-08-03T23:51:35.232Z,40.71
2022-08-03T23:54:21.785Z,40.54
2022-08-03T23:57:29.494Z,40.43
